createdAt,value
2018-05-29T00:00:40.911Z,77.30
2018-05-29T00:03:08.351Z,77.31
2018-05-29T00:05:35.936Z,77.29
2018-05-29T00:08:03.367Z,77.21
2018-05-29T00:10:30.785Z,77.46
2018-05-29T00:12:58.225Z,77.37
2018-05-29T00:15:25.656Z,77.02
2018-05-29T00:17:53.225Z,76.52
2018-05-29T00:20:20.654Z,76.60
2018-05-29T00:22:49.913Z,76.79
2018-05-29T00:25:17.551Z,77.39
2018-05-29T00:27:44.985Z,77.24
2018-05-29T00:30:12.464Z,77.04
2018-05-29T00:32:40.405Z,77.23
2018-05-29T00:35:07.889Z,76.89
2018-05-29T00:37:35.324Z,76.53
2018-05-29T00:40:02.799Z,76.62
2018-05-29T00:42:30.391Z,77.18
2018-05-29T00:44:57.850Z,77.09
2018-05-29T00:47:28.271Z,77.12
2018-05-29T00:49:55.826Z,76.85
2018-05-29T00:52:23.223Z,76.88
2018-05-29T00:55:02.644Z,77.50
2018-05-29T00:57:30.079Z,76.59
2018-05-29T00:59:57.556Z,77.87
2018-05-29T01:02:25.008Z,77.85
2018-05-29T01:04:52.439Z,77.61
2018-05-29T01:07:19.863Z,77.80
2018-05-29T01:09:47.441Z,78.08
2018-05-29T01:12:19.291Z,78.36
2018-05-29T01:14:46.734Z,77.95
2018-05-29T01:17:14.770Z,77.96
2018-05-29T01:19:42.217Z,77.71
2018-05-29T01:22:09.958Z,77.24
2018-05-29T01:24:37.420Z,77.25
2018-05-29T01:27:04.883Z,77.23
2018-05-29T01:29:32.284Z,77.49
2018-05-29T01:31:59.724Z,77.37
2018-05-29T01:34:28.465Z,77.38
2018-05-29T01:36:57.108Z,77.56
2018-05-29T01:39:24.593Z,77.70
2018-05-29T01:41:52.037Z,77.90
2018-05-29T01:44:19.560Z,77.98
2018-05-29T01:46:47.005Z,77.98
2018-05-29T01:49:14.459Z,77.87
2018-05-29T01:51:41.926Z,77.84
2018-05-29T01:54:09.384Z,78.26
2018-05-29T01:56:36.836Z,77.95
2018-05-29T01:59:04.316Z,78.43
2018-05-29T02:01:32.472Z,78.29
2018-05-29T02:03:59.880Z,78.03
2018-05-29T02:06:27.335Z,77.53
2018-05-29T02:08:54.768Z,78.09
2018-05-29T02:11:22.247Z,78.43
2018-05-29T02:13:49.688Z,78.73
2018-05-29T02:16:18.982Z,78.06
2018-05-29T02:18:46.426Z,78.37
2018-05-29T02:21:13.936Z,78.69
2018-05-29T02:23:41.528Z,78.14
2018-05-29T02:26:08.960Z,78.56
2018-05-29T02:28:36.393Z,78.25
2018-05-29T02:31:03.829Z,78.05
2018-05-29T02:33:32.454Z,78.24
2018-05-29T02:35:59.880Z,77.70
2018-05-29T02:38:28.800Z,78.17
2018-05-29T02:40:56.299Z,78.53
2018-05-29T02:43:23.750Z,78.43
2018-05-29T02:45:51.310Z,78.72
2018-05-29T02:48:18.803Z,78.91
2018-05-29T02:50:46.225Z,78.90
2018-05-29T02:53:17.329Z,79.16
2018-05-29T02:55:44.739Z,79.35
2018-05-29T02:58:12.186Z,79.19
2018-05-29T03:00:39.730Z,79.13
2018-05-29T03:03:07.212Z,79.07
2018-05-29T03:05:34.655Z,78.98
2018-05-29T03:08:02.917Z,79.02
2018-05-29T03:10:30.351Z,78.87
2018-05-29T03:12:57.813Z,79.07
2018-05-29T03:15:25.310Z,78.76
2018-05-29T03:17:52.736Z,78.92
2018-05-29T03:20:21.861Z,79.24
2018-05-29T03:22:49.274Z,79.39
2018-05-29T03:25:16.713Z,79.42
2018-05-29T03:27:44.144Z,79.53
2018-05-29T03:30:11.660Z,79.60
2018-05-29T03:32:39.135Z,79.81
2018-05-29T03:35:06.535Z,80.12
2018-05-29T03:37:33.980Z,80.15
2018-05-29T03:40:02.894Z,79.83
2018-05-29T03:42:31.304Z,79.57
2018-05-29T03:44:58.776Z,79.23
2018-05-29T03:47:27.100Z,79.69
2018-05-29T03:49:54.560Z,80.57
2018-05-29T03:52:21.992Z,80.72
2018-05-29T03:54:50.020Z,80.73
2018-05-29T03:57:17.514Z,80.35
2018-05-29T03:59:45.674Z,79.64
2018-05-29T04:02:13.113Z,79.21
2018-05-29T04:04:40.567Z,79.37
2018-05-29T04:07:07.991Z,79.26
2018-05-29T04:09:35.441Z,79.23
2018-05-29T04:12:02.879Z,79.04
2018-05-29T04:14:30.372Z,79.04
2018-05-29T04:16:57.874Z,78.62
2018-05-29T04:19:25.353Z,78.28
2018-05-29T04:21:52.926Z,77.93
2018-05-29T04:24:20.404Z,78.41
2018-05-29T04:26:47.908Z,78.31
2018-05-29T04:29:15.437Z,76.98
2018-05-29T04:31:43.442Z,76.54
2018-05-29T04:34:10.906Z,76.53
2018-05-29T04:36:38.887Z,76.92
2018-05-29T04:39:06.365Z,77.29
2018-05-29T04:41:33.797Z,77.46
2018-05-29T04:44:01.259Z,77.25
2018-05-29T04:46:28.651Z,77.49
2018-05-29T04:48:57.097Z,77.86
2018-05-29T04:51:24.538Z,78.20
2018-05-29T04:53:52.600Z,78.14
2018-05-29T04:56:20.124Z,78.31
2018-05-29T04:58:47.562Z,78.39
2018-05-29T05:01:14.994Z,78.56
2018-05-29T05:03:43.099Z,78.54
2018-05-29T05:06:10.524Z,78.28
2018-05-29T05:08:39.351Z,78.61
2018-05-29T05:11:06.816Z,78.42
2018-05-29T05:13:34.218Z,78.50
2018-05-29T05:16:01.697Z,79.23
2018-05-29T05:18:29.100Z,78.42
2018-05-29T05:20:56.894Z,78.17
2018-05-29T05:23:24.316Z,78.20
2018-05-29T05:25:51.784Z,78.38
2018-05-29T05:28:19.245Z,77.82
2018-05-29T05:30:46.739Z,77.55
2018-05-29T05:33:14.166Z,77.88
2018-05-29T05:35:41.562Z,77.43
2018-05-29T05:38:09.003Z,77.40
2018-05-29T05:40:36.430Z,77.80
2018-05-29T05:43:03.837Z,77.94
2018-05-29T05:45:31.258Z,77.51
2018-05-29T05:47:58.801Z,77.40
2018-05-29T05:50:26.456Z,77.18
2018-05-29T05:52:53.884Z,77.37
2018-05-29T05:55:21.350Z,77.58
2018-05-29T05:57:48.812Z,77.77
2018-05-29T06:00:16.263Z,77.98
2018-05-29T06:02:43.708Z,78.28
2018-05-29T06:05:11.166Z,77.97
2018-05-29T06:07:38.600Z,78.30
2018-05-29T06:10:06.137Z,78.18
2018-05-29T06:12:33.570Z,77.83
2018-05-29T06:15:01.040Z,77.89
2018-05-29T06:17:28.434Z,77.97
2018-05-29T06:19:56.007Z,77.97
2018-05-29T06:22:23.438Z,77.54
2018-05-29T06:24:50.898Z,77.50
2018-05-29T06:27:18.344Z,77.53
2018-05-29T06:29:45.783Z,77.14
2018-05-29T06:32:13.227Z,77.37
2018-05-29T06:34:40.664Z,77.07
2018-05-29T06:37:08.159Z,76.86
2018-05-29T06:39:35.628Z,76.99
2018-05-29T06:42:06.811Z,77.12
2018-05-29T06:44:35.465Z,76.61
2018-05-29T06:47:02.863Z,75.53
2018-05-29T06:49:32.447Z,75.67
2018-05-29T06:51:59.929Z,75.51
2018-05-29T06:54:27.710Z,74.74
2018-05-29T06:56:55.197Z,73.50
2018-05-29T06:59:22.636Z,73.54
2018-05-29T07:01:51.290Z,74.35
2018-05-29T07:04:18.718Z,74.92
2018-05-29T07:06:46.227Z,74.30
2018-05-29T07:09:28.175Z,73.84
2018-05-29T07:11:55.657Z,73.54
2018-05-29T07:14:24.944Z,73.78
2018-05-29T07:16:52.583Z,73.61
2018-05-29T07:19:20.043Z,73.89
2018-05-29T07:21:47.499Z,73.95
2018-05-29T07:24:14.924Z,72.38
2018-05-29T07:26:43.170Z,72.41
2018-05-29T07:29:11.847Z,72.28
2018-05-29T07:31:39.324Z,71.18
2018-05-29T07:34:06.833Z,69.86
2018-05-29T07:36:34.296Z,69.48
2018-05-29T07:39:02.368Z,68.00
2018-05-29T07:41:29.806Z,67.82
2018-05-29T07:43:57.280Z,67.60
2018-05-29T07:46:24.716Z,66.85
2018-05-29T07:48:52.185Z,66.28
2018-05-29T07:51:19.626Z,66.23
2018-05-29T07:53:47.950Z,66.19
2018-05-29T07:56:15.357Z,66.44
2018-05-29T07:58:42.807Z,65.03
2018-05-29T08:01:10.298Z,62.58
2018-05-29T08:03:38.240Z,62.29
2018-05-29T08:06:05.723Z,61.66
2018-05-29T08:08:33.919Z,61.77
2018-05-29T08:11:01.340Z,62.87
2018-05-29T08:13:28.743Z,62.69
2018-05-29T08:15:56.520Z,62.39
2018-05-29T08:18:23.963Z,59.73
2018-05-29T08:20:51.410Z,57.02
2018-05-29T08:23:18.964Z,56.03
2018-05-29T08:25:46.598Z,55.90
2018-05-29T08:28:14.097Z,55.52
2018-05-29T08:30:41.605Z,55.37
2018-05-29T08:33:09.049Z,54.25
2018-05-29T08:35:36.505Z,54.01
2018-05-29T08:38:04.011Z,53.88
2018-05-29T08:40:31.592Z,53.47
2018-05-29T08:42:59.046Z,54.67
2018-05-29T08:45:26.522Z,54.27
2018-05-29T08:47:54.341Z,54.29
2018-05-29T08:50:21.812Z,54.46
2018-05-29T08:52:49.280Z,53.90
2018-05-29T08:55:16.720Z,54.04
2018-05-29T08:57:44.182Z,55.56
2018-05-29T09:00:11.582Z,56.05
2018-05-29T09:02:39.246Z,54.70
2018-05-29T09:05:06.640Z,54.88
2018-05-29T09:07:34.082Z,54.10
2018-05-29T09:10:01.606Z,53.85
2018-05-29T09:12:30.059Z,52.63
2018-05-29T09:14:58.241Z,51.75
2018-05-29T09:17:25.652Z,52.25
2018-05-29T09:19:53.177Z,52.12
2018-05-29T09:22:20.559Z,51.78
2018-05-29T09:24:48.028Z,51.95
2018-05-29T09:27:15.516Z,50.84
2018-05-29T09:29:43.546Z,49.75
2018-05-29T09:32:10.989Z,48.76
2018-05-29T09:34:38.489Z,47.73
2018-05-29T09:37:05.942Z,47.33
2018-05-29T09:39:33.522Z,46.85
2018-05-29T09:42:00.971Z,45.97
2018-05-29T09:44:28.453Z,45.62
2018-05-29T09:46:55.873Z,46.24
2018-05-29T09:49:23.442Z,46.09
2018-05-29T09:51:51.561Z,44.74
2018-05-29T09:54:19.078Z,44.25
2018-05-29T09:56:46.557Z,43.82
2018-05-29T09:59:13.986Z,41.92
2018-05-29T10:01:41.497Z,43.54
2018-05-29T10:04:09.001Z,44.03
2018-05-29T10:06:39.112Z,43.24
2018-05-29T10:09:06.616Z,43.18
2018-05-29T10:11:35.144Z,42.70
2018-05-29T10:14:02.623Z,42.75
2018-05-29T10:16:30.093Z,43.32
2018-05-29T10:18:58.376Z,44.28
2018-05-29T10:21:25.891Z,45.13
2018-05-29T10:23:53.542Z,45.03
2018-05-29T10:26:21.052Z,44.96
2018-05-29T10:28:48.499Z,45.81
2018-05-29T10:31:17.107Z,46.42
2018-05-29T10:33:44.785Z,46.96
2018-05-29T10:36:13.611Z,47.35
2018-05-29T10:38:41.075Z,47.66
2018-05-29T10:41:10.819Z,47.70
2018-05-29T10:43:38.261Z,45.45
2018-05-29T10:46:05.731Z,45.93
2018-05-29T10:48:34.198Z,45.61
2018-05-29T10:51:01.662Z,45.63
2018-05-29T10:53:29.594Z,46.42
2018-05-29T10:55:57.023Z,46.25
2018-05-29T10:58:24.463Z,44.23
2018-05-29T11:00:51.882Z,44.12
2018-05-29T11:03:19.327Z,45.04
2018-05-29T11:05:46.736Z,44.30
2018-05-29T11:08:14.786Z,44.03
2018-05-29T11:10:42.400Z,43.54
2018-05-29T11:13:09.840Z,42.99
2018-05-29T11:15:37.251Z,42.87
2018-05-29T11:18:05.520Z,42.56
2018-05-29T11:20:33.008Z,43.46
2018-05-29T11:23:00.528Z,42.85
2018-05-29T11:25:27.962Z,42.95
2018-05-29T11:27:55.440Z,44.09
2018-05-29T11:30:22.976Z,43.67
2018-05-29T11:32:50.509Z,41.68
2018-05-29T11:35:17.937Z,41.85
2018-05-29T11:37:45.997Z,40.40
2018-05-29T11:40:13.413Z,40.56
2018-05-29T11:42:40.895Z,40.19
2018-05-29T11:45:08.376Z,39.49
2018-05-29T11:47:35.860Z,40.04
2018-05-29T11:50:03.335Z,39.68
2018-05-29T11:52:30.801Z,39.50
2018-05-29T11:54:58.327Z,39.27
2018-05-29T11:57:25.715Z,39.54
2018-05-29T11:59:53.152Z,39.27
2018-05-29T12:02:20.693Z,39.02
2018-05-29T12:04:48.143Z,38.70
2018-05-29T12:07:15.698Z,38.56
2018-05-29T12:09:43.228Z,38.96
2018-05-29T12:12:22.464Z,39.32
2018-05-29T12:14:49.944Z,38.56
2018-05-29T12:17:17.342Z,38.73
2018-05-29T12:19:44.755Z,38.37
2018-05-29T12:22:12.178Z,38.69
2018-05-29T12:24:39.638Z,37.58
2018-05-29T12:27:07.126Z,38.55
2018-05-29T12:29:35.263Z,37.79
2018-05-29T12:32:02.737Z,37.27
2018-05-29T12:34:31.456Z,37.20
2018-05-29T12:36:59.082Z,36.98
2018-05-29T12:39:26.488Z,36.92
2018-05-29T12:41:55.300Z,35.91
2018-05-29T12:44:22.761Z,36.47
2018-05-29T12:46:50.172Z,36.15
2018-05-29T12:49:17.654Z,35.83
2018-05-29T12:51:45.123Z,35.63
2018-05-29T12:54:12.596Z,35.52
2018-05-29T12:56:40.066Z,34.65
2018-05-29T12:59:07.580Z,34.39
2018-05-29T13:01:35.088Z,34.08
2018-05-29T13:04:02.536Z,34.60
2018-05-29T13:06:31.056Z,34.27
2018-05-29T13:08:58.463Z,33.82
2018-05-29T13:11:25.945Z,33.89
2018-05-29T13:13:55.663Z,33.52
2018-05-29T13:16:23.125Z,32.78
2018-05-29T13:18:50.583Z,32.72
2018-05-29T13:21:18.056Z,32.89
2018-05-29T13:23:45.575Z,33.62
2018-05-29T13:26:13.018Z,33.62
2018-05-29T13:28:40.699Z,33.27
2018-05-29T13:31:08.193Z,32.85
2018-05-29T13:33:35.734Z,32.86
2018-05-29T13:36:03.212Z,32.17
2018-05-29T13:38:30.676Z,31.90
2018-05-29T13:40:58.114Z,33.22
2018-05-29T13:43:29.314Z,35.53
2018-05-29T13:45:56.794Z,34.99
2018-05-29T13:48:24.292Z,34.44
2018-05-29T13:50:51.786Z,33.60
2018-05-29T13:53:19.239Z,34.95
2018-05-29T13:55:46.706Z,33.62
2018-05-29T13:58:14.225Z,34.04
2018-05-29T14:00:41.628Z,33.78
2018-05-29T14:03:09.937Z,34.22
2018-05-29T14:05:37.341Z,35.52
2018-05-29T14:08:04.818Z,35.54
2018-05-29T14:10:32.247Z,35.18
2018-05-29T14:13:00.740Z,35.85
2018-05-29T14:15:28.236Z,35.58
2018-05-29T14:17:55.281Z,35.26
2018-05-29T14:20:22.804Z,35.54
2018-05-29T14:22:50.258Z,34.68
2018-05-29T14:25:18.272Z,35.35
2018-05-29T14:27:45.795Z,34.38
2018-05-29T14:30:13.236Z,34.55
2018-05-29T14:32:40.749Z,34.54
2018-05-29T14:35:10.476Z,34.32
2018-05-29T14:37:37.971Z,34.32
2018-05-29T14:40:04.963Z,34.38
2018-05-29T14:42:31.953Z,34.42
2018-05-29T14:45:00.566Z,34.80
2018-05-29T14:47:27.576Z,35.23
2018-05-29T14:49:54.596Z,35.45
2018-05-29T14:52:21.613Z,35.17
2018-05-29T14:54:48.630Z,34.69
2018-05-29T14:57:15.639Z,35.04
2018-05-29T14:59:42.648Z,35.79
2018-05-29T15:02:09.655Z,35.60
2018-05-29T15:04:37.109Z,35.49
2018-05-29T15:07:04.519Z,34.99
2018-05-29T15:09:32.007Z,33.67
2018-05-29T15:11:59.486Z,32.92
2018-05-29T15:14:27.206Z,32.55
2018-05-29T15:16:54.681Z,32.87
2018-05-29T15:19:22.805Z,33.22
2018-05-29T15:21:49.774Z,32.38
2018-05-29T15:24:17.205Z,32.49
2018-05-29T15:26:45.543Z,33.58
2018-05-29T15:29:12.527Z,32.93
2018-05-29T15:31:39.479Z,32.67
2018-05-29T15:34:06.533Z,35.62
2018-05-29T15:36:33.524Z,35.76
2018-05-29T15:39:00.685Z,35.48
2018-05-29T15:41:27.744Z,36.26
2018-05-29T15:43:54.726Z,35.75
2018-05-29T15:46:21.752Z,35.77
2018-05-29T15:48:48.728Z,35.83
2018-05-29T15:51:15.728Z,35.93
2018-05-29T15:53:42.853Z,35.88
2018-05-29T15:56:10.441Z,35.47
2018-05-29T15:58:37.673Z,33.93
2018-05-29T16:01:05.155Z,34.34
2018-05-29T16:03:35.109Z,34.74
2018-05-29T16:06:02.180Z,34.67
2018-05-29T16:08:29.777Z,35.02
2018-05-29T16:10:57.374Z,34.84
2018-05-29T16:13:24.895Z,36.28
2018-05-29T16:15:53.233Z,38.22
2018-05-29T16:18:20.729Z,39.75
2018-05-29T16:20:48.428Z,40.97
2018-05-29T16:23:15.976Z,41.00
2018-05-29T16:25:43.524Z,40.51
2018-05-29T16:28:11.017Z,39.96
2018-05-29T16:30:39.804Z,38.75
2018-05-29T16:33:07.278Z,38.19
2018-05-29T16:35:34.785Z,38.16
2018-05-29T16:38:03.109Z,38.34
2018-05-29T16:40:30.731Z,38.70
2018-05-29T16:42:58.202Z,38.77
2018-05-29T16:45:25.620Z,39.14
2018-05-29T16:47:52.685Z,39.21
2018-05-29T16:50:20.127Z,39.72
2018-05-29T16:52:47.557Z,39.89
2018-05-29T16:55:14.657Z,40.08
2018-05-29T16:57:42.234Z,39.92
2018-05-29T17:00:09.712Z,39.47
2018-05-29T17:02:36.652Z,39.02
2018-05-29T17:05:04.186Z,38.96
2018-05-29T17:07:38.743Z,39.08
2018-05-29T17:10:06.309Z,38.94
2018-05-29T17:12:34.962Z,38.09
2018-05-29T17:15:02.566Z,37.59
2018-05-29T17:17:29.996Z,38.66
2018-05-29T17:19:57.485Z,39.91
2018-05-29T17:22:24.467Z,39.59
2018-05-29T17:24:51.935Z,38.70
2018-05-29T17:27:19.452Z,39.05
2018-05-29T17:29:47.330Z,39.40
2018-05-29T17:32:32.301Z,39.59
2018-05-29T17:35:01.849Z,40.00
2018-05-29T17:37:28.980Z,40.18
2018-05-29T17:39:55.998Z,40.52
2018-05-29T17:42:23.405Z,40.92
2018-05-29T17:44:51.884Z,41.14
2018-05-29T17:47:19.532Z,41.29
2018-05-29T17:49:46.501Z,41.15
2018-05-29T17:52:13.541Z,40.74
2018-05-29T17:54:40.774Z,42.09
2018-05-29T17:57:08.200Z,42.16
2018-05-29T17:59:35.867Z,41.69
2018-05-29T18:02:02.852Z,41.63
2018-05-29T18:04:29.861Z,42.66
2018-05-29T18:06:56.860Z,42.34
2018-05-29T18:09:26.800Z,41.84
2018-05-29T18:11:53.859Z,41.89
2018-05-29T18:14:20.852Z,41.59
2018-05-29T18:16:47.951Z,41.55
2018-05-29T18:19:15.344Z,41.38
2018-05-29T18:21:48.394Z,41.38
2018-05-29T18:24:15.908Z,41.47
2018-05-29T18:26:42.897Z,41.21
2018-05-29T18:29:09.893Z,41.47
2018-05-29T18:31:36.923Z,41.40
2018-05-29T18:34:04.371Z,41.68
2018-05-29T18:36:31.847Z,41.69
2018-05-29T18:38:59.298Z,41.71
2018-05-29T18:41:26.777Z,41.92
2018-05-29T18:43:54.330Z,42.33
2018-05-29T18:46:22.396Z,43.05
2018-05-29T18:48:49.841Z,43.38
2018-05-29T18:51:17.277Z,43.78
2018-05-29T18:53:44.747Z,44.41
2018-05-29T18:56:12.227Z,45.45
2018-05-29T18:58:41.679Z,46.16
2018-05-29T19:01:09.166Z,46.98
2018-05-29T19:03:36.684Z,47.47
2018-05-29T19:06:04.479Z,46.08
2018-05-29T19:08:31.519Z,45.93
2018-05-29T19:10:58.960Z,44.70
2018-05-29T19:13:26.455Z,44.95
2018-05-29T19:15:53.441Z,45.45
2018-05-29T19:18:20.435Z,46.65
2018-05-29T19:20:47.427Z,46.91
2018-05-29T19:23:14.450Z,48.25
2018-05-29T19:25:41.599Z,49.69
2018-05-29T19:28:09.108Z,50.09
2018-05-29T19:30:36.638Z,50.18
2018-05-29T19:33:04.088Z,50.51
2018-05-29T19:35:31.513Z,50.60
2018-05-29T19:37:58.950Z,50.79
2018-05-29T19:40:26.427Z,51.07
2018-05-29T19:42:53.866Z,51.21
2018-05-29T19:45:21.572Z,51.16
2018-05-29T19:47:49.006Z,51.78
2018-05-29T19:50:17.098Z,52.28
2018-05-29T19:52:44.620Z,52.69
2018-05-29T19:55:11.607Z,53.08
2018-05-29T19:57:38.644Z,53.21
2018-05-29T20:00:06.928Z,53.67
2018-05-29T20:02:33.985Z,53.64
2018-05-29T20:05:01.122Z,54.11
2018-05-29T20:07:28.111Z,54.46
2018-05-29T20:09:55.545Z,54.49
2018-05-29T20:12:22.962Z,54.50
2018-05-29T20:14:50.409Z,53.98
2018-05-29T20:17:18.891Z,50.67
2018-05-29T20:19:46.352Z,49.82
2018-05-29T20:22:13.768Z,50.03
2018-05-29T20:24:41.181Z,50.64
2018-05-29T20:27:08.658Z,51.36
2018-05-29T20:29:36.153Z,51.73
2018-05-29T20:32:03.629Z,53.01
2018-05-29T20:34:31.346Z,53.01
2018-05-29T20:36:59.755Z,55.20
2018-05-29T20:39:27.999Z,57.98
2018-05-29T20:41:55.455Z,59.62
2018-05-29T20:44:22.918Z,61.68
2018-05-29T20:46:50.361Z,61.96
2018-05-29T20:49:17.813Z,63.25
2018-05-29T20:51:45.231Z,63.54
2018-05-29T20:54:12.698Z,61.97
2018-05-29T20:56:40.145Z,62.30
2018-05-29T20:59:07.744Z,63.17
2018-05-29T21:01:35.149Z,63.75
2018-05-29T21:04:02.626Z,64.85
2018-05-29T21:06:30.083Z,66.27
2018-05-29T21:08:57.556Z,67.22
2018-05-29T21:11:24.983Z,67.77
2018-05-29T21:13:52.458Z,67.65
2018-05-29T21:16:22.496Z,68.11
2018-05-29T21:18:50.008Z,68.45
2018-05-29T21:21:17.466Z,68.46
2018-05-29T21:23:44.900Z,68.98
2018-05-29T21:26:12.480Z,69.19
2018-05-29T21:28:39.922Z,68.93
2018-05-29T21:31:08.124Z,68.91
2018-05-29T21:33:35.588Z,69.41
2018-05-29T21:36:03.034Z,69.75
2018-05-29T21:38:30.484Z,69.92
2018-05-29T21:40:57.927Z,69.64
2018-05-29T21:43:25.405Z,69.49
2018-05-29T21:45:52.833Z,68.18
2018-05-29T21:48:20.231Z,68.15
2018-05-29T21:50:47.703Z,68.00
2018-05-29T21:53:15.967Z,67.43
2018-05-29T21:55:43.370Z,67.38
2018-05-29T21:58:10.824Z,67.11
2018-05-29T22:00:38.283Z,67.37
2018-05-29T22:03:05.754Z,67.34
2018-05-29T22:05:35.806Z,67.95
2018-05-29T22:08:03.251Z,68.07
2018-05-29T22:10:30.674Z,68.18
2018-05-29T22:12:58.200Z,68.41
2018-05-29T22:15:26.677Z,68.78
2018-05-29T22:17:55.334Z,69.77
2018-05-29T22:20:22.773Z,70.17
2018-05-29T22:22:50.204Z,69.86
2018-05-29T22:25:17.611Z,68.79
2018-05-29T22:27:45.114Z,69.37
2018-05-29T22:30:12.589Z,70.00
2018-05-29T22:32:40.039Z,70.40
2018-05-29T22:35:07.473Z,70.91
2018-05-29T22:37:34.977Z,71.25
2018-05-29T22:40:02.443Z,70.75
2018-05-29T22:42:29.881Z,71.03
2018-05-29T22:44:57.296Z,71.28
2018-05-29T22:47:25.695Z,71.72
2018-05-29T22:49:53.159Z,71.93
2018-05-29T22:52:20.583Z,72.02
2018-05-29T22:54:48.022Z,71.94
2018-05-29T22:57:15.482Z,72.05
2018-05-29T22:59:42.944Z,71.99
2018-05-29T23:02:10.381Z,71.51
2018-05-29T23:04:37.801Z,71.30
2018-05-29T23:07:06.035Z,71.01
2018-05-29T23:09:33.488Z,70.77
2018-05-29T23:12:00.929Z,70.59
2018-05-29T23:14:28.413Z,70.30
2018-05-29T23:16:55.840Z,70.09
2018-05-29T23:19:23.248Z,69.94
2018-05-29T23:21:50.720Z,69.68
2018-05-29T23:24:18.582Z,69.65
2018-05-29T23:26:46.945Z,70.07
2018-05-29T23:29:14.439Z,70.78
2018-05-29T23:31:41.908Z,70.36
2018-05-29T23:34:09.376Z,69.75
2018-05-29T23:36:36.823Z,69.64
2018-05-29T23:39:04.253Z,70.11
2018-05-29T23:41:31.708Z,70.66
2018-05-29T23:43:59.373Z,71.09
2018-05-29T23:46:26.827Z,71.71
2018-05-29T23:48:55.456Z,71.93
2018-05-29T23:51:22.842Z,71.80
2018-05-29T23:53:50.281Z,71.95
2018-05-29T23:56:17.711Z,72.15
2018-05-29T23:58:45.139Z,71.87
